createdAt,value
2019-02-28T00:01:02.151Z,18.20
2019-02-28T00:03:30.417Z,22.40
2019-02-28T00:05:58.773Z,26.07
2019-02-28T00:08:27.021Z,23.33
2019-02-28T00:10:55.371Z,21.70
2019-02-28T00:13:23.637Z,20.37
2019-02-28T00:15:51.918Z,19.70
2019-02-28T00:18:20.215Z,19.57
2019-02-28T00:20:48.494Z,21.50
2019-02-28T00:23:19.250Z,22.63
2019-02-28T00:25:47.091Z,19.13
2019-02-28T00:28:15.442Z,19.37
2019-02-28T00:30:44.032Z,22.80
2019-02-28T00:33:12.310Z,21.07
2019-02-28T00:35:40.602Z,21.77
2019-02-28T00:38:08.851Z,22.97
2019-02-28T00:40:38.503Z,24.03
2019-02-28T00:43:07.097Z,24.07
2019-02-28T00:45:37.214Z,25.50
2019-02-28T00:48:05.357Z,18.50
2019-02-28T00:50:33.627Z,24.97
2019-02-28T00:53:02.192Z,21.47
2019-02-28T00:55:30.467Z,26.20
2019-02-28T00:57:58.719Z,20.67
2019-02-28T01:00:27.027Z,18.17
2019-02-28T01:02:55.606Z,20.60
2019-02-28T01:05:24.150Z,24.70
2019-02-28T01:07:52.397Z,20.80
2019-02-28T01:10:20.703Z,19.33
2019-02-28T01:12:53.052Z,18.10
2019-02-28T01:15:18.945Z,19.43
2019-02-28T01:17:47.209Z,18.53
2019-02-28T01:20:16.697Z,21.93
2019-02-28T01:22:45.131Z,21.13
2019-02-28T01:25:16.276Z,22.90
2019-02-28T01:27:44.527Z,15.70
2019-02-28T01:30:14.408Z,20.80
2019-02-28T01:32:42.667Z,21.23
2019-02-28T01:35:10.934Z,19.90
2019-02-28T01:37:39.205Z,21.73
2019-02-28T01:40:09.795Z,15.77
2019-02-28T01:42:38.075Z,20.23
2019-02-28T01:45:09.963Z,26.37
2019-02-28T01:47:38.718Z,19.17
2019-02-28T01:50:08.607Z,19.20
2019-02-28T01:52:36.886Z,19.33
2019-02-28T01:55:07.277Z,22.40
2019-02-28T01:57:35.551Z,19.30
2019-02-28T02:00:06.650Z,18.13
2019-02-28T02:02:38.037Z,20.10
2019-02-28T02:05:06.237Z,19.33
2019-02-28T02:07:35.347Z,20.47
2019-02-28T02:10:07.423Z,18.33
2019-02-28T02:12:35.690Z,19.77
2019-02-28T02:15:06.821Z,20.87
2019-02-28T02:17:35.473Z,20.23
2019-02-28T02:20:07.770Z,17.90
2019-02-28T02:22:36.060Z,18.93
2019-02-28T02:25:05.449Z,18.67
2019-02-28T02:27:34.074Z,18.20
2019-02-28T02:30:02.332Z,20.27
2019-02-28T02:32:37.065Z,22.90
2019-02-28T02:35:06.048Z,16.77
2019-02-28T02:37:31.397Z,17.73
2019-02-28T02:39:59.879Z,19.83
2019-02-28T02:42:28.159Z,14.73
2019-02-28T02:44:56.413Z,16.03
2019-02-28T02:47:31.295Z,15.73
2019-02-28T02:49:57.530Z,15.90
2019-02-28T02:52:29.993Z,18.80
2019-02-28T02:54:54.639Z,18.50
2019-02-28T02:57:23.195Z,16.80
2019-02-28T02:59:51.441Z,15.47
2019-02-28T03:02:19.724Z,18.23
2019-02-28T03:04:47.974Z,18.13
2019-02-28T03:07:23.010Z,14.73
2019-02-28T03:09:46.321Z,17.53
2019-02-28T03:12:14.664Z,15.37
2019-02-28T03:14:42.974Z,18.67
2019-02-28T03:17:12.125Z,18.37
2019-02-28T03:19:40.553Z,16.60
2019-02-28T03:22:08.906Z,16.93
2019-02-28T03:24:37.193Z,18.37
2019-02-28T03:27:05.525Z,17.07
2019-02-28T03:29:33.866Z,16.67
2019-02-28T03:32:02.113Z,15.60
2019-02-28T03:34:30.421Z,19.17
2019-02-28T03:36:58.735Z,17.57
2019-02-28T03:39:27.056Z,19.57
2019-02-28T03:41:55.644Z,18.57
2019-02-28T03:44:23.923Z,15.80
2019-02-28T03:46:52.175Z,18.83
2019-02-28T03:49:20.771Z,14.50
2019-02-28T03:51:49.023Z,14.90
2019-02-28T03:54:17.665Z,19.00
2019-02-28T03:56:51.373Z,17.07
2019-02-28T03:59:18.790Z,18.73
2019-02-28T04:01:46.557Z,21.40
2019-02-28T04:04:15.030Z,18.87
2019-02-28T04:06:43.280Z,24.40
2019-02-28T04:09:11.526Z,17.60
2019-02-28T04:11:39.810Z,17.80
2019-02-28T04:14:08.074Z,18.20
2019-02-28T04:16:36.349Z,15.30
2019-02-28T04:19:04.607Z,18.50
2019-02-28T04:21:32.903Z,26.60
2019-02-28T04:24:01.157Z,17.80
2019-02-28T04:26:30.070Z,18.13
2019-02-28T04:28:59.393Z,19.17
2019-02-28T04:31:27.672Z,19.07
2019-02-28T04:33:55.939Z,20.60
2019-02-28T04:36:24.347Z,19.70
2019-02-28T04:38:52.584Z,19.67
2019-02-28T04:41:21.145Z,17.50
2019-02-28T04:43:49.399Z,19.70
2019-02-28T04:46:17.666Z,16.40
2019-02-28T04:48:48.429Z,16.77
2019-02-28T04:51:15.951Z,15.20
2019-02-28T04:53:44.197Z,15.83
2019-02-28T04:56:12.481Z,18.03
2019-02-28T04:58:40.742Z,16.60
2019-02-28T05:01:09.123Z,17.10
2019-02-28T05:03:39.005Z,18.47
2019-02-28T05:06:07.292Z,22.80
2019-02-28T05:08:38.653Z,18.07
2019-02-28T05:11:05.879Z,17.70
2019-02-28T05:13:34.217Z,15.53
2019-02-28T05:16:02.543Z,16.70
2019-02-28T05:18:30.846Z,16.50
2019-02-28T05:20:59.125Z,15.37
2019-02-28T05:23:27.438Z,18.67
2019-02-28T05:25:55.710Z,16.60
2019-02-28T05:28:24.011Z,17.20
2019-02-28T05:30:53.678Z,15.83
2019-02-28T05:33:22.350Z,15.43
2019-02-28T05:35:50.617Z,19.53
2019-02-28T05:38:21.131Z,16.13
2019-02-28T05:40:48.862Z,16.73
2019-02-28T05:43:17.465Z,19.80
2019-02-28T05:45:48.707Z,19.00
2019-02-28T05:48:15.722Z,16.40
2019-02-28T05:50:44.540Z,12.43
2019-02-28T05:53:12.778Z,20.27
2019-02-28T05:55:41.044Z,14.73
2019-02-28T05:58:09.291Z,16.60
2019-02-28T06:00:37.791Z,13.90
2019-02-28T06:03:06.101Z,14.93
2019-02-28T06:05:35.612Z,14.77
2019-02-28T06:08:04.301Z,14.17
2019-02-28T06:10:32.590Z,17.73
2019-02-28T06:13:00.914Z,16.30
2019-02-28T06:15:29.271Z,14.17
2019-02-28T06:17:57.847Z,19.90
2019-02-28T06:20:26.091Z,13.47
2019-02-28T06:22:54.371Z,16.73
2019-02-28T06:25:25.065Z,14.23
2019-02-28T06:27:52.631Z,18.00
2019-02-28T06:30:20.915Z,19.77
2019-02-28T06:32:49.263Z,21.03
2019-02-28T06:35:20.333Z,18.63
2019-02-28T06:37:47.842Z,19.53
2019-02-28T06:40:16.724Z,19.63
2019-02-28T06:42:46.838Z,21.37
2019-02-28T06:45:16.425Z,20.43
2019-02-28T06:47:48.201Z,17.00
2019-02-28T06:50:15.879Z,19.93
2019-02-28T06:52:44.160Z,18.00
2019-02-28T06:55:14.067Z,22.63
2019-02-28T06:57:42.961Z,21.47
2019-02-28T07:00:15.528Z,18.83
2019-02-28T07:02:43.879Z,22.60
2019-02-28T07:05:12.234Z,20.33
2019-02-28T07:07:40.499Z,31.50
2019-02-28T07:10:12.726Z,24.80
2019-02-28T07:12:41.933Z,23.60
2019-02-28T07:15:10.625Z,25.77
2019-02-28T07:17:39.203Z,26.07
2019-02-28T07:20:15.082Z,25.30
2019-02-28T07:22:43.791Z,29.50
2019-02-28T07:25:12.604Z,26.67
2019-02-28T07:27:42.074Z,24.93
2019-02-28T07:30:17.153Z,24.83
2019-02-28T07:32:43.746Z,26.40
2019-02-28T07:35:12.012Z,24.73
2019-02-28T07:37:40.313Z,29.20
2019-02-28T07:40:15.518Z,28.63
2019-02-28T07:42:41.751Z,27.40
2019-02-28T07:45:12.255Z,28.17
2019-02-28T07:47:40.567Z,28.17
2019-02-28T07:50:11.799Z,26.53
2019-02-28T07:52:40.450Z,35.00
2019-02-28T07:55:19.857Z,28.17
2019-02-28T07:57:51.113Z,28.23
2019-02-28T08:00:22.756Z,27.37
2019-02-28T08:02:51.114Z,28.93
2019-02-28T08:05:19.364Z,26.40
2019-02-28T08:07:52.036Z,29.70
2019-02-28T08:10:25.642Z,25.17
2019-02-28T08:12:53.994Z,29.27
2019-02-28T08:15:24.494Z,29.17
2019-02-28T08:17:52.838Z,28.93
2019-02-28T08:20:21.098Z,28.60
2019-02-28T08:22:49.433Z,29.37
2019-02-28T08:25:17.704Z,30.20
2019-02-28T08:27:45.985Z,33.67
2019-02-28T08:30:25.146Z,31.00
2019-02-28T08:32:53.420Z,27.73
2019-02-28T08:35:21.678Z,30.90
2019-02-28T08:37:55.661Z,27.17
2019-02-28T08:40:26.755Z,24.87
2019-02-28T08:42:54.639Z,30.73
2019-02-28T08:45:23.190Z,28.73
2019-02-28T08:47:55.391Z,31.37
2019-02-28T08:50:27.580Z,33.83
2019-02-28T08:53:05.714Z,32.93
2019-02-28T08:55:33.973Z,37.13
2019-02-28T08:58:06.187Z,32.23
2019-02-28T09:00:33.261Z,32.13
2019-02-28T09:03:01.795Z,37.77
2019-02-28T09:05:30.322Z,27.87
2019-02-28T09:07:58.817Z,33.33
2019-02-28T09:10:27.129Z,31.90
2019-02-28T09:12:55.756Z,30.47
2019-02-28T09:15:26.999Z,30.17
2019-02-28T09:17:58.197Z,29.63
2019-02-28T09:20:24.353Z,32.70
2019-02-28T09:22:52.640Z,36.07
2019-02-28T09:25:22.855Z,36.30
2019-02-28T09:27:51.409Z,31.63
2019-02-28T09:30:43.709Z,30.97
2019-02-28T09:33:12.282Z,55.43
2019-02-28T09:35:45.002Z,38.03
2019-02-28T09:38:13.436Z,35.80
2019-02-28T09:40:41.256Z,37.20
2019-02-28T09:43:09.762Z,36.10
2019-02-28T09:45:40.030Z,34.33
2019-02-28T09:48:08.298Z,30.50
2019-02-28T09:50:36.575Z,34.10
2019-02-28T09:53:04.847Z,31.70
2019-02-28T09:55:35.247Z,36.27
2019-02-28T09:58:03.111Z,34.87
2019-02-28T10:00:31.617Z,31.47
2019-02-28T10:02:59.920Z,37.10
2019-02-28T10:05:28.169Z,33.40
2019-02-28T10:08:01.375Z,38.83
2019-02-28T10:10:28.379Z,39.43
2019-02-28T10:12:56.978Z,42.27
2019-02-28T10:15:25.537Z,45.10
2019-02-28T10:17:53.823Z,44.40
2019-02-28T10:20:30.560Z,41.67
2019-02-28T10:22:59.219Z,41.13
2019-02-28T10:25:27.902Z,42.40
2019-02-28T10:28:01.397Z,60.33
2019-02-28T10:30:32.297Z,46.13
2019-02-28T10:32:58.993Z,48.13
2019-02-28T10:35:27.634Z,39.13
2019-02-28T10:37:58.510Z,44.37
2019-02-28T10:40:28.322Z,37.17
2019-02-28T10:42:57.031Z,38.93
2019-02-28T10:45:25.724Z,44.07
2019-02-28T10:47:53.973Z,41.37
2019-02-28T10:50:33.953Z,39.27
2019-02-28T10:53:05.598Z,45.73
2019-02-28T10:55:34.385Z,40.83
2019-02-28T10:58:02.851Z,42.30
2019-02-28T11:00:36.503Z,47.30
2019-02-28T11:03:05.180Z,39.17
2019-02-28T11:05:36.206Z,38.53
2019-02-28T11:08:05.119Z,43.07
2019-02-28T11:10:36.617Z,42.80
2019-02-28T11:13:06.543Z,39.27
2019-02-28T11:15:34.800Z,39.90
2019-02-28T11:18:08.511Z,40.23
2019-02-28T11:20:33.319Z,37.50
2019-02-28T11:23:01.717Z,43.37
2019-02-28T11:25:34.641Z,40.40
2019-02-28T11:27:59.979Z,43.53
2019-02-28T11:30:29.715Z,39.03
2019-02-28T11:33:03.008Z,37.03
2019-02-28T11:35:28.282Z,39.43
2019-02-28T11:37:56.539Z,33.83
2019-02-28T11:40:27.743Z,39.20
2019-02-28T11:42:56.038Z,40.47
2019-02-28T11:45:27.319Z,33.67
2019-02-28T11:47:57.246Z,35.23
2019-02-28T11:50:25.749Z,36.47
2019-02-28T11:52:54.014Z,37.40
2019-02-28T11:55:22.568Z,40.07
2019-02-28T11:57:51.427Z,35.33
2019-02-28T12:00:28.534Z,31.87
2019-02-28T12:03:00.706Z,34.63
2019-02-28T12:05:27.186Z,32.90
2019-02-28T12:07:55.510Z,29.37
2019-02-28T12:10:26.987Z,28.40
2019-02-28T12:12:56.300Z,28.87
2019-02-28T12:15:27.131Z,32.20
2019-02-28T12:17:55.384Z,30.93
2019-02-28T12:20:26.426Z,31.23
2019-02-28T12:22:53.662Z,31.23
2019-02-28T12:25:22.690Z,29.33
2019-02-28T12:27:50.940Z,29.37
2019-02-28T12:30:30.359Z,27.20
2019-02-28T12:32:58.617Z,27.60
2019-02-28T12:35:26.911Z,28.60
2019-02-28T12:37:55.245Z,30.93
2019-02-28T12:40:26.343Z,29.73
2019-02-28T12:42:54.622Z,27.50
2019-02-28T12:45:26.020Z,27.30
2019-02-28T12:47:54.296Z,28.60
2019-02-28T12:50:22.573Z,28.93
2019-02-28T12:52:50.886Z,24.27
2019-02-28T12:55:21.246Z,29.47
2019-02-28T12:57:51.634Z,23.77
2019-02-28T13:00:25.620Z,27.40
2019-02-28T13:02:53.950Z,27.07
2019-02-28T13:05:22.328Z,28.97
2019-02-28T13:07:50.586Z,28.00
2019-02-28T13:10:26.746Z,27.17
2019-02-28T13:12:52.669Z,26.90
2019-02-28T13:15:21.697Z,27.00
2019-02-28T13:17:49.944Z,28.43
2019-02-28T13:20:23.508Z,29.23
2019-02-28T13:22:51.834Z,24.80
2019-02-28T13:25:23.357Z,24.30
2019-02-28T13:27:50.602Z,24.40
2019-02-28T13:30:25.059Z,28.07
2019-02-28T13:32:53.321Z,24.87
2019-02-28T13:35:24.531Z,25.50
2019-02-28T13:37:52.771Z,25.03
2019-02-28T13:40:23.739Z,23.03
2019-02-28T13:42:51.976Z,24.67
2019-02-28T13:45:23.313Z,24.37
2019-02-28T13:47:51.304Z,25.37
2019-02-28T13:50:27.989Z,22.33
2019-02-28T13:52:56.516Z,25.73
2019-02-28T13:55:25.097Z,21.37
2019-02-28T13:57:53.394Z,22.03
2019-02-28T14:00:33.307Z,24.73
2019-02-28T14:03:09.124Z,23.70
2019-02-28T14:05:39.272Z,24.67
2019-02-28T14:08:09.756Z,21.67
2019-02-28T14:10:34.875Z,25.17
2019-02-28T14:13:03.297Z,22.47
2019-02-28T14:15:41.097Z,24.70
2019-02-28T14:18:10.929Z,22.87
2019-02-28T14:20:39.459Z,28.73
2019-02-28T14:23:07.704Z,27.93
2019-02-28T14:25:36.375Z,27.80
2019-02-28T14:28:06.247Z,29.43
2019-02-28T14:30:34.534Z,28.80
2019-02-28T14:33:02.778Z,28.83
2019-02-28T14:35:33.897Z,36.00
2019-02-28T14:38:01.111Z,25.27
2019-02-28T14:40:29.394Z,26.23
2019-02-28T14:42:57.662Z,33.37
2019-02-28T14:45:28.543Z,29.83
2019-02-28T14:47:57.464Z,31.93
2019-02-28T14:50:25.973Z,31.30
2019-02-28T14:52:56.475Z,30.77
2019-02-28T14:55:24.762Z,29.13
2019-02-28T14:57:55.169Z,33.03
2019-02-28T15:00:35.456Z,31.03
2019-02-28T15:03:04.038Z,32.70
2019-02-28T15:05:40.378Z,29.03
2019-02-28T15:08:11.999Z,30.63
2019-02-28T15:10:38.633Z,33.90
2019-02-28T15:13:07.199Z,28.57
2019-02-28T15:15:36.433Z,32.93
2019-02-28T15:18:05.253Z,32.83
2019-02-28T15:20:33.562Z,34.63
2019-02-28T15:23:01.916Z,32.33
2019-02-28T15:25:31.137Z,33.93
2019-02-28T15:27:59.479Z,29.73
2019-02-28T15:30:33.731Z,34.20
2019-02-28T15:33:03.247Z,34.40
2019-02-28T15:35:31.526Z,30.43
2019-02-28T15:37:59.780Z,33.03
2019-02-28T15:40:36.494Z,33.77
2019-02-28T15:43:04.746Z,33.30
2019-02-28T15:45:36.243Z,32.53
2019-02-28T15:48:03.018Z,32.97
2019-02-28T15:50:31.371Z,35.93
2019-02-28T15:52:59.678Z,34.50
2019-02-28T15:55:27.982Z,33.67
2019-02-28T15:57:56.251Z,33.87
2019-02-28T16:00:35.121Z,34.37
2019-02-28T16:03:03.373Z,37.03
2019-02-28T16:05:31.671Z,37.47
2019-02-28T16:07:59.958Z,37.20
2019-02-28T16:10:32.984Z,33.93
2019-02-28T16:13:01.447Z,34.70
2019-02-28T16:15:29.716Z,36.53
2019-02-28T16:17:58.446Z,36.93
2019-02-28T16:20:31.472Z,51.03
2019-02-28T16:22:56.806Z,41.30
2019-02-28T16:25:30.021Z,42.50
2019-02-28T16:27:58.325Z,40.80
2019-02-28T16:30:28.839Z,42.17
2019-02-28T16:32:56.615Z,42.43
2019-02-28T16:35:25.298Z,40.47
2019-02-28T16:37:53.926Z,40.37
2019-02-28T16:40:30.074Z,40.33
2019-02-28T16:42:58.415Z,35.13
2019-02-28T16:45:32.625Z,37.50
2019-02-28T16:48:03.003Z,42.53
2019-02-28T16:50:31.596Z,35.23
2019-02-28T16:53:00.190Z,30.03
2019-02-28T16:55:31.074Z,30.27
2019-02-28T16:57:58.924Z,30.00
2019-02-28T17:00:27.767Z,28.87
2019-02-28T17:02:56.127Z,24.90
2019-02-28T17:05:27.979Z,20.90
2019-02-28T17:07:54.403Z,21.30
2019-02-28T17:10:36.346Z,16.33
2019-02-28T17:13:16.111Z,20.93
2019-02-28T17:15:51.998Z,18.13
2019-02-28T17:18:22.576Z,15.07
2019-02-28T17:20:51.242Z,14.77
2019-02-28T17:23:19.535Z,16.27
2019-02-28T17:25:47.881Z,11.20
2019-02-28T17:28:36.018Z,14.90
2019-02-28T17:31:12.420Z,15.20
2019-02-28T17:33:43.442Z,12.37
2019-02-28T17:36:11.689Z,13.13
2019-02-28T17:38:40.782Z,9.90
2019-02-28T17:41:10.932Z,9.70
2019-02-28T17:43:39.200Z,10.07
2019-02-28T17:46:10.840Z,11.43
2019-02-28T17:49:15.686Z,8.00
2019-02-28T17:51:47.295Z,10.00
2019-02-28T17:54:31.302Z,12.50
2019-02-28T17:57:08.506Z,12.53
2019-02-28T17:59:45.675Z,13.50
2019-02-28T18:02:38.884Z,11.87
2019-02-28T18:05:19.243Z,11.10
2019-02-28T18:08:02.576Z,13.63
2019-02-28T18:10:52.421Z,13.80
2019-02-28T18:13:46.741Z,13.83
2019-02-28T18:16:27.235Z,13.73
2019-02-28T18:19:04.460Z,11.80
2019-02-28T18:21:50.524Z,15.17
2019-02-28T18:24:53.994Z,14.37
2019-02-28T18:27:43.651Z,43.63
2019-02-28T18:30:42.724Z,19.27
2019-02-28T18:33:11.511Z,13.73
2019-02-28T18:35:39.824Z,14.60
2019-02-28T18:38:08.098Z,12.37
2019-02-28T18:40:36.377Z,17.80
2019-02-28T18:43:04.685Z,17.47
2019-02-28T18:45:32.929Z,12.40
2019-02-28T18:48:01.204Z,15.70
2019-02-28T18:50:29.470Z,17.60
2019-02-28T18:52:57.861Z,18.37
2019-02-28T18:55:34.725Z,18.50
2019-02-28T18:57:56.242Z,14.67
2019-02-28T19:00:25.005Z,21.33
2019-02-28T19:02:53.272Z,17.60
2019-02-28T19:05:21.522Z,18.67
2019-02-28T19:07:49.786Z,20.93
2019-02-28T19:10:18.844Z,20.83
2019-02-28T19:12:47.636Z,19.50
2019-02-28T19:15:16.000Z,19.63
2019-02-28T19:17:44.565Z,18.20
2019-02-28T19:20:13.752Z,19.03
2019-02-28T19:22:42.355Z,23.90
2019-02-28T19:25:11.878Z,24.27
2019-02-28T19:27:40.137Z,23.47
2019-02-28T19:30:13.478Z,17.37
2019-02-28T19:32:41.756Z,17.97
2019-02-28T19:35:10.063Z,21.80
2019-02-28T19:37:38.361Z,20.30
2019-02-28T19:40:13.290Z,14.60
2019-02-28T19:42:41.554Z,16.80
2019-02-28T19:45:13.293Z,14.70
2019-02-28T19:47:41.623Z,14.20
2019-02-28T19:50:10.870Z,18.43
2019-02-28T19:52:39.195Z,15.10
2019-02-28T19:55:10.821Z,15.97
2019-02-28T19:57:39.254Z,17.63
2019-02-28T20:00:18.355Z,15.37
2019-02-28T20:02:46.622Z,20.60
2019-02-28T20:05:14.906Z,24.70
2019-02-28T20:07:43.250Z,20.27
2019-02-28T20:10:18.901Z,16.50
2019-02-28T20:12:47.235Z,21.80
2019-02-28T20:15:16.610Z,22.37
2019-02-28T20:17:45.202Z,22.30
2019-02-28T20:20:22.488Z,19.23
2019-02-28T20:22:55.236Z,21.53
2019-02-28T20:25:23.546Z,24.37
2019-02-28T20:27:52.105Z,36.97
2019-02-28T20:30:22.103Z,54.93
2019-02-28T20:32:50.365Z,23.50
2019-02-28T20:35:26.163Z,20.27
2019-02-28T20:37:48.730Z,19.53
2019-02-28T20:40:31.854Z,24.43
2019-02-28T20:43:00.098Z,21.87
2019-02-28T20:45:28.548Z,23.47
2019-02-28T20:47:57.700Z,22.10
2019-02-28T20:50:29.255Z,23.23
2019-02-28T20:52:57.602Z,26.97
2019-02-28T20:55:26.770Z,24.90
2019-02-28T20:57:55.398Z,21.83
2019-02-28T21:00:25.342Z,21.07
2019-02-28T21:02:53.603Z,19.97
2019-02-28T21:05:21.909Z,23.10
2019-02-28T21:07:50.648Z,18.90
2019-02-28T21:10:18.945Z,20.57
2019-02-28T21:12:47.532Z,21.00
2019-02-28T21:15:17.118Z,21.30
2019-02-28T21:17:45.652Z,21.00
2019-02-28T21:20:17.069Z,17.67
2019-02-28T21:22:45.650Z,21.90
2019-02-28T21:25:15.398Z,17.27
2019-02-28T21:27:43.720Z,23.90
2019-02-28T21:30:15.254Z,23.57
2019-02-28T21:32:43.617Z,20.30
2019-02-28T21:35:12.430Z,28.07
2019-02-28T21:37:41.007Z,22.83
2019-02-28T21:40:11.774Z,23.43
2019-02-28T21:42:40.051Z,24.77
2019-02-28T21:45:17.436Z,23.10
2019-02-28T21:47:45.979Z,25.03
2019-02-28T21:50:16.408Z,23.77
2019-02-28T21:52:44.787Z,22.83
2019-02-28T21:55:14.953Z,22.83
2019-02-28T21:57:43.599Z,24.03
2019-02-28T22:00:31.875Z,19.97
2019-02-28T22:03:00.140Z,22.87
2019-02-28T22:05:28.427Z,18.97
2019-02-28T22:07:56.799Z,22.67
2019-02-28T22:10:25.260Z,23.50
2019-02-28T22:12:53.546Z,23.97
2019-02-28T22:15:22.875Z,20.63
2019-02-28T22:17:51.431Z,18.23
2019-02-28T22:20:19.730Z,16.77
2019-02-28T22:22:48.302Z,19.83
2019-02-28T22:25:17.204Z,16.47
2019-02-28T22:27:45.470Z,21.07
2019-02-28T22:30:37.762Z,18.27
2019-02-28T22:33:24.634Z,18.90
2019-02-28T22:35:57.374Z,17.23
2019-02-28T22:38:25.642Z,17.40
2019-02-28T22:40:54.346Z,18.33
2019-02-28T22:43:22.622Z,40.13
2019-02-28T22:45:50.978Z,18.37
2019-02-28T22:48:19.252Z,13.77
2019-02-28T22:50:47.648Z,17.43
2019-02-28T22:53:15.906Z,18.97
2019-02-28T22:55:44.546Z,20.60
2019-02-28T22:58:12.891Z,19.67
2019-02-28T23:01:00.470Z,12.73
2019-02-28T23:03:31.207Z,13.97
2019-02-28T23:05:59.855Z,17.97
2019-02-28T23:08:28.242Z,13.30
2019-02-28T23:10:56.506Z,14.17
2019-02-28T23:13:24.811Z,11.23
2019-02-28T23:15:53.083Z,14.37
2019-02-28T23:18:21.432Z,14.23
2019-02-28T23:20:49.684Z,16.40
2019-02-28T23:23:17.981Z,16.63
2019-02-28T23:25:46.315Z,15.80
2019-02-28T23:28:28.587Z,14.00
2019-02-28T23:31:24.634Z,19.27
2019-02-28T23:34:01.166Z,14.07
2019-02-28T23:36:24.522Z,12.10
2019-02-28T23:38:52.789Z,14.63
2019-02-28T23:41:21.113Z,14.77
2019-02-28T23:43:49.787Z,18.13
2019-02-28T23:46:18.142Z,15.43
2019-02-28T23:48:46.403Z,12.17
2019-02-28T23:51:14.690Z,12.07
2019-02-28T23:53:43.045Z,14.00
2019-02-28T23:56:11.359Z,12.90
2019-02-28T23:58:39.911Z,11.07
